createdAt,value
2024-04-12T00:02:15.146Z,21.17
2024-04-12T00:04:42.314Z,20.86
2024-04-12T00:07:17.565Z,20.35
2024-04-12T00:09:54.343Z,20.79
2024-04-12T00:12:29.630Z,20.99
2024-04-12T00:15:17.366Z,21.09
2024-04-12T00:17:49.195Z,21.29
2024-04-12T00:20:19.578Z,21.19
2024-04-12T00:22:51.439Z,20.34
2024-04-12T00:25:18.457Z,20.62
2024-04-12T00:27:48.466Z,20.23
2024-04-12T00:30:39.677Z,20.05
2024-04-12T00:33:12.111Z,20.39
2024-04-12T00:35:39.650Z,19.78
2024-04-12T00:38:15.409Z,19.81
2024-04-12T00:40:47.286Z,19.71
2024-04-12T00:43:20.106Z,19.57
2024-04-12T00:45:50.311Z,19.56
2024-04-12T00:48:22.805Z,19.60
2024-04-12T00:50:53.837Z,19.34
2024-04-12T00:53:29.945Z,18.78
2024-04-12T00:56:01.924Z,18.87
2024-04-12T00:58:37.329Z,19.67
2024-04-12T01:01:16.630Z,19.26
2024-04-12T01:03:50.604Z,19.18
2024-04-12T01:06:18.602Z,18.75
2024-04-12T01:08:53.070Z,19.42
2024-04-12T01:11:21.553Z,19.39
2024-04-12T01:13:51.566Z,19.13
2024-04-12T01:16:23.314Z,18.54
2024-04-12T01:18:56.716Z,18.57
2024-04-12T01:21:26.085Z,18.86
2024-04-12T01:23:56.793Z,18.96
2024-04-12T01:26:26.707Z,19.44
2024-04-12T01:28:59.324Z,19.81
2024-04-12T01:31:31.043Z,19.05
2024-04-12T01:34:03.055Z,19.19
2024-04-12T01:36:30.298Z,18.88
2024-04-12T01:39:00.344Z,18.70
2024-04-12T01:41:35.290Z,19.34
2024-04-12T01:44:07.782Z,19.27
2024-04-12T01:46:36.029Z,18.88
2024-04-12T01:49:06.544Z,18.41
2024-04-12T01:51:35.673Z,18.50
2024-04-12T01:54:15.100Z,19.42
2024-04-12T01:56:48.652Z,19.36
2024-04-12T01:59:22.585Z,19.38
2024-04-12T02:01:50.053Z,19.80
2024-04-12T02:04:22.768Z,19.93
2024-04-12T02:06:50.528Z,19.86
2024-04-12T02:09:21.444Z,19.89
2024-04-12T02:11:53.882Z,19.06
2024-04-12T02:14:23.904Z,19.74
2024-04-12T02:16:52.169Z,19.36
2024-04-12T02:19:23.724Z,19.51
2024-04-12T02:21:51.469Z,20.17
2024-04-12T02:24:20.881Z,19.94
2024-04-12T02:26:50.515Z,19.32
2024-04-12T02:29:22.903Z,19.66
2024-04-12T02:31:51.810Z,19.81
2024-04-12T02:34:21.774Z,19.87
2024-04-12T02:36:49.468Z,20.23
2024-04-12T02:39:24.138Z,19.40
2024-04-12T02:41:55.614Z,18.79
2024-04-12T02:44:26.237Z,18.95
2024-04-12T02:46:53.357Z,19.98
2024-04-12T02:49:22.660Z,20.30
2024-04-12T02:51:49.479Z,19.78
2024-04-12T02:54:22.035Z,19.90
2024-04-12T02:56:49.851Z,18.72
2024-04-12T02:59:23.694Z,19.42
2024-04-12T03:01:53.178Z,19.80
2024-04-12T03:04:22.537Z,20.17
2024-04-12T03:06:49.208Z,20.29
2024-04-12T03:09:22.863Z,19.51
2024-04-12T03:11:51.488Z,19.71
2024-04-12T03:14:23.407Z,19.71
2024-04-12T03:16:52.545Z,19.19
2024-04-12T03:19:22.213Z,19.23
2024-04-12T03:21:52.431Z,19.23
2024-04-12T03:24:22.339Z,19.65
2024-04-12T03:26:50.186Z,19.47
2024-04-12T03:29:20.191Z,19.72
2024-04-12T03:31:51.619Z,19.18
2024-04-12T03:34:21.633Z,19.46
2024-04-12T03:36:58.671Z,19.43
2024-04-12T03:39:31.547Z,18.84
2024-04-12T03:42:00.744Z,19.06
2024-04-12T03:44:32.646Z,19.86
2024-04-12T03:47:09.399Z,19.44
2024-04-12T03:49:41.690Z,18.91
2024-04-12T03:52:14.213Z,19.77
2024-04-12T03:54:47.213Z,19.68
2024-04-12T03:57:15.198Z,18.35
2024-04-12T03:59:46.842Z,18.57
2024-04-12T04:02:20.319Z,19.24
2024-04-12T04:04:50.948Z,19.51
2024-04-12T04:07:22.099Z,19.38
2024-04-12T04:09:49.151Z,19.14
2024-04-12T04:12:19.206Z,19.46
2024-04-12T04:14:50.549Z,18.33
2024-04-12T04:17:32.037Z,18.41
2024-04-12T04:19:59.990Z,18.48
2024-04-12T04:22:43.260Z,18.58
2024-04-12T04:25:15.104Z,19.29
2024-04-12T04:27:41.880Z,18.56
2024-04-12T04:30:12.782Z,18.85
2024-04-12T04:32:42.382Z,18.88
2024-04-12T04:35:12.747Z,19.11
2024-04-12T04:37:40.840Z,19.24
2024-04-12T04:40:18.311Z,19.29
2024-04-12T04:42:47.111Z,18.60
2024-04-12T04:45:19.808Z,18.79
2024-04-12T04:47:50.353Z,17.18
2024-04-12T04:50:22.074Z,18.42
2024-04-12T04:52:49.140Z,18.17
2024-04-12T04:55:19.070Z,17.51
2024-04-12T04:57:46.173Z,19.27
2024-04-12T05:00:20.516Z,18.51
2024-04-12T05:02:51.502Z,19.45
2024-04-12T05:05:26.236Z,18.81
2024-04-12T05:07:56.549Z,18.30
2024-04-12T05:10:36.879Z,17.93
2024-04-12T05:13:05.011Z,18.44
2024-04-12T05:15:49.759Z,18.54
2024-04-12T05:18:30.709Z,17.39
2024-04-12T05:20:59.540Z,18.14
2024-04-12T05:23:36.987Z,17.50
2024-04-12T05:26:06.697Z,17.73
2024-04-12T05:28:40.011Z,16.71
2024-04-12T05:31:13.139Z,18.10
2024-04-12T05:33:47.179Z,18.08
2024-04-12T05:36:15.624Z,18.04
2024-04-12T05:38:46.990Z,18.42
2024-04-12T05:41:16.422Z,18.90
2024-04-12T05:43:45.695Z,17.62
2024-04-12T05:46:12.920Z,17.93
2024-04-12T05:48:46.617Z,17.75
2024-04-12T05:51:13.714Z,17.72
2024-04-12T05:53:55.003Z,18.19
2024-04-12T05:56:26.693Z,19.16
2024-04-12T05:58:59.551Z,18.97
2024-04-12T06:01:27.176Z,19.02
2024-04-12T06:04:12.176Z,17.95
2024-04-12T06:06:42.274Z,18.93
2024-04-12T06:09:20.797Z,18.89
2024-04-12T06:11:52.173Z,18.80
2024-04-12T06:14:22.392Z,18.25
2024-04-12T06:16:55.142Z,18.50
2024-04-12T06:19:30.367Z,19.03
2024-04-12T06:21:58.673Z,18.13
2024-04-12T06:24:30.643Z,18.63
2024-04-12T06:27:01.345Z,17.75
2024-04-12T06:29:37.985Z,18.64
2024-04-12T06:32:09.428Z,18.30
2024-04-12T06:34:43.043Z,18.78
2024-04-12T06:37:10.255Z,18.18
2024-04-12T06:39:41.934Z,18.47
2024-04-12T06:42:10.383Z,18.24
2024-04-12T06:44:43.623Z,19.52
2024-04-12T06:47:14.650Z,18.92
2024-04-12T06:49:47.226Z,18.83
2024-04-12T06:52:16.119Z,17.72
2024-04-12T06:54:46.476Z,17.76
2024-04-12T06:57:21.158Z,18.84
2024-04-12T06:59:56.263Z,18.77
2024-04-12T07:02:28.078Z,19.66
2024-04-12T07:05:01.706Z,18.62
2024-04-12T07:07:30.268Z,19.02
2024-04-12T07:10:03.595Z,20.20
2024-04-12T07:12:33.060Z,20.54
2024-04-12T07:15:11.182Z,20.57
2024-04-12T07:17:40.764Z,20.15
2024-04-12T07:20:26.631Z,20.06
2024-04-12T07:22:56.394Z,19.30
2024-04-12T07:25:35.478Z,21.31
2024-04-12T07:28:08.058Z,20.84
2024-04-12T07:30:40.956Z,20.99
2024-04-12T07:33:07.793Z,20.73
2024-04-12T07:35:40.568Z,20.16
2024-04-12T07:38:09.549Z,20.87
2024-04-12T07:40:41.452Z,22.04
2024-04-12T07:43:14.740Z,21.18
2024-04-12T07:45:46.005Z,20.88
2024-04-12T07:48:30.567Z,21.20
2024-04-12T07:51:06.273Z,20.55
2024-04-12T07:53:37.906Z,20.68
2024-04-12T07:56:16.003Z,22.35
2024-04-12T07:58:44.330Z,21.61
2024-04-12T08:01:17.138Z,22.86
2024-04-12T08:03:51.759Z,23.38
2024-04-12T08:06:38.329Z,24.89
2024-04-12T08:09:06.496Z,24.54
2024-04-12T08:11:37.608Z,25.30
2024-04-12T08:14:09.850Z,23.55
2024-04-12T08:16:40.455Z,25.62
2024-04-12T08:19:13.567Z,24.91
2024-04-12T08:21:48.832Z,26.41
2024-04-12T08:24:17.604Z,25.68
2024-04-12T08:26:50.348Z,25.80
2024-04-12T08:29:21.677Z,26.54
2024-04-12T08:31:51.566Z,24.53
2024-04-12T08:34:18.296Z,23.83
2024-04-12T08:36:51.302Z,23.52
2024-04-12T08:39:27.137Z,23.84
2024-04-12T08:42:05.705Z,24.15
2024-04-12T08:44:32.574Z,26.16
2024-04-12T08:47:18.072Z,25.69
2024-04-12T08:49:46.622Z,25.04
2024-04-12T08:52:26.212Z,23.91
2024-04-12T08:54:55.652Z,24.50
2024-04-12T08:57:26.416Z,23.35
2024-04-12T08:59:54.353Z,22.02
2024-04-12T09:02:26.146Z,22.27
2024-04-12T09:04:53.748Z,21.58
2024-04-12T09:07:25.796Z,21.78
2024-04-12T09:09:54.167Z,22.57
2024-04-12T09:12:25.854Z,21.59
2024-04-12T09:14:54.162Z,21.96
2024-04-12T09:17:29.929Z,22.14
2024-04-12T09:19:59.117Z,22.31
2024-04-12T09:22:33.215Z,20.69
2024-04-12T09:25:15.623Z,21.41
2024-04-12T09:27:50.134Z,21.30
2024-04-12T09:30:35.408Z,21.30
2024-04-12T09:33:21.892Z,21.60
2024-04-12T09:35:52.312Z,21.33
2024-04-12T09:38:28.315Z,20.81
2024-04-12T09:41:04.309Z,21.32
2024-04-12T09:43:40.455Z,20.76
2024-04-12T09:46:09.735Z,21.47
2024-04-12T09:48:57.835Z,20.64
2024-04-12T09:51:47.138Z,20.89
2024-04-12T09:54:36.352Z,21.06
2024-04-12T09:57:23.342Z,21.56
2024-04-12T10:00:09.635Z,20.67
2024-04-12T10:02:56.431Z,21.45
2024-04-12T10:05:43.498Z,23.01
2024-04-12T10:08:30.804Z,22.66
2024-04-12T10:11:20.327Z,21.70
2024-04-12T10:14:06.940Z,21.46
2024-04-12T10:17:04.544Z,22.59
2024-04-12T10:19:49.888Z,21.71
2024-04-12T10:22:35.260Z,21.70
2024-04-12T10:25:24.665Z,20.54
2024-04-12T10:28:13.754Z,21.50
2024-04-12T10:31:03.162Z,21.38
2024-04-12T10:33:48.847Z,22.14
2024-04-12T10:36:35.212Z,22.10
2024-04-12T10:39:13.620Z,21.95
2024-04-12T10:41:46.907Z,22.61
2024-04-12T10:44:19.616Z,21.97
2024-04-12T10:46:51.897Z,22.97
2024-04-12T10:49:22.639Z,22.78
2024-04-12T10:51:54.312Z,22.21
2024-04-12T10:54:25.099Z,22.26
2024-04-12T10:56:59.286Z,23.22
2024-04-12T10:59:31.753Z,23.12
2024-04-12T11:02:01.955Z,22.22
2024-04-12T11:04:30.386Z,23.59
2024-04-12T11:07:00.306Z,24.10
2024-04-12T11:09:39.573Z,24.37
2024-04-12T11:12:12.247Z,23.77
2024-04-12T11:14:51.407Z,23.96
2024-04-12T11:17:37.204Z,23.68
2024-04-12T11:20:23.664Z,24.00
2024-04-12T11:23:09.258Z,22.86
2024-04-12T11:25:54.821Z,24.20
2024-04-12T11:28:57.645Z,24.44
2024-04-12T11:31:30.848Z,23.90
2024-04-12T11:34:11.819Z,24.17
2024-04-12T11:36:43.401Z,23.62
2024-04-12T11:39:19.308Z,23.10
2024-04-12T11:41:49.604Z,23.50
2024-04-12T11:44:19.003Z,25.32
2024-04-12T11:46:57.146Z,24.39
2024-04-12T11:49:39.523Z,23.96
2024-04-12T11:52:16.948Z,23.86
2024-04-12T11:54:52.714Z,24.83
2024-04-12T11:57:24.113Z,25.14
2024-04-12T11:59:59.522Z,24.25
2024-04-12T12:02:29.805Z,23.87
2024-04-12T12:05:00.825Z,25.03
2024-04-12T12:07:28.119Z,24.52
2024-04-12T12:09:58.341Z,24.16
2024-04-12T12:12:28.353Z,24.48
2024-04-12T12:14:59.433Z,23.84
2024-04-12T12:17:32.204Z,24.84
2024-04-12T12:20:02.472Z,23.46
2024-04-12T12:22:31.931Z,25.67
2024-04-12T12:25:05.896Z,25.19
2024-04-12T12:27:34.514Z,24.88
2024-04-12T12:30:15.851Z,25.41
2024-04-12T12:32:46.641Z,26.09
2024-04-12T12:35:20.390Z,26.69
2024-04-12T12:37:49.686Z,26.13
2024-04-12T12:40:19.819Z,25.75
2024-04-12T12:42:54.915Z,26.28
2024-04-12T12:45:25.615Z,25.87
2024-04-12T12:47:55.913Z,25.19
2024-04-12T12:50:27.079Z,25.94
2024-04-12T12:52:54.777Z,24.87
2024-04-12T12:55:25.834Z,24.45
2024-04-12T12:58:12.176Z,24.63
2024-04-12T13:00:43.957Z,24.48
2024-04-12T13:03:19.877Z,23.66
2024-04-12T13:05:51.670Z,23.89
2024-04-12T13:08:19.380Z,24.59
2024-04-12T13:10:59.070Z,24.24
2024-04-12T13:13:27.885Z,23.93
2024-04-12T13:15:59.907Z,25.34
2024-04-12T13:18:29.817Z,23.60
2024-04-12T13:21:00.345Z,23.03
2024-04-12T13:23:28.435Z,23.33
2024-04-12T13:25:58.388Z,23.21
2024-04-12T13:28:25.959Z,22.91
2024-04-12T13:30:55.584Z,23.81
2024-04-12T13:33:22.731Z,23.69
2024-04-12T13:35:55.759Z,24.40
2024-04-12T13:38:26.564Z,23.67
2024-04-12T13:41:02.095Z,23.10
2024-04-12T13:43:30.505Z,23.11
2024-04-12T13:46:21.063Z,21.88
2024-04-12T13:49:06.644Z,23.51
2024-04-12T13:51:41.154Z,22.78
2024-04-12T13:54:15.282Z,22.67
2024-04-12T13:56:49.152Z,23.53
2024-04-12T13:59:15.912Z,22.91
2024-04-12T14:01:47.221Z,22.92
2024-04-12T14:04:19.652Z,22.88
2024-04-12T14:06:52.992Z,23.13
2024-04-12T14:09:24.437Z,22.98
2024-04-12T14:11:54.843Z,21.73
2024-04-12T14:14:21.733Z,22.88
2024-04-12T14:16:53.259Z,23.19
2024-04-12T14:19:20.985Z,21.61
2024-04-12T14:21:54.312Z,22.41
2024-04-12T14:24:40.302Z,22.30
2024-04-12T14:27:10.153Z,21.90
2024-04-12T14:29:37.579Z,22.15
2024-04-12T14:32:15.209Z,23.10
2024-04-12T14:34:51.333Z,22.43
2024-04-12T14:37:28.142Z,22.63
2024-04-12T14:39:57.644Z,21.48
2024-04-12T14:42:27.259Z,21.14
2024-04-12T14:44:55.477Z,20.49
2024-04-12T14:47:26.933Z,21.08
2024-04-12T14:49:55.001Z,21.59
2024-04-12T14:52:27.369Z,21.08
2024-04-12T14:54:54.978Z,21.22
2024-04-12T14:57:24.485Z,20.84
2024-04-12T14:59:53.622Z,20.85
2024-04-12T15:02:28.014Z,21.39
2024-04-12T15:05:13.217Z,21.02
2024-04-12T15:08:03.774Z,21.59
2024-04-12T15:10:50.680Z,22.00
2024-04-12T15:13:35.812Z,22.03
2024-04-12T15:16:21.645Z,21.96
2024-04-12T15:19:08.385Z,21.63
2024-04-12T15:21:54.939Z,21.25
2024-04-12T15:24:42.891Z,20.58
2024-04-12T15:27:28.100Z,21.35
2024-04-12T15:30:13.416Z,22.19
2024-04-12T15:32:59.431Z,21.20
2024-04-12T15:35:47.400Z,20.77
2024-04-12T15:38:32.648Z,20.83
2024-04-12T15:41:20.378Z,22.25
2024-04-12T15:44:06.094Z,22.18
2024-04-12T15:46:52.114Z,21.92
2024-04-12T15:49:30.745Z,22.03
2024-04-12T15:52:05.618Z,22.05
2024-04-12T15:54:36.628Z,22.85
2024-04-12T15:57:24.446Z,22.30
2024-04-12T16:00:10.480Z,22.01
2024-04-12T16:02:52.182Z,22.27
2024-04-12T16:05:37.868Z,21.82
2024-04-12T16:08:23.864Z,22.97
2024-04-12T16:10:54.401Z,22.27
2024-04-12T16:13:30.410Z,23.22
2024-04-12T16:16:02.094Z,24.38
2024-04-12T16:18:33.414Z,22.68
2024-04-12T16:21:00.693Z,22.33
2024-04-12T16:23:40.449Z,21.86
2024-04-12T16:26:08.033Z,22.40
2024-04-12T16:28:41.348Z,23.05
2024-04-12T16:31:08.283Z,22.61
2024-04-12T16:33:39.206Z,23.58
2024-04-12T16:36:08.372Z,21.99
2024-04-12T16:38:46.304Z,23.13
2024-04-12T16:41:13.756Z,23.06
2024-04-12T16:43:47.211Z,22.87
2024-04-12T16:46:14.387Z,23.78
2024-04-12T16:48:44.117Z,22.95
2024-04-12T16:51:12.472Z,24.02
2024-04-12T16:53:44.285Z,23.20
2024-04-12T16:56:11.001Z,23.53
2024-04-12T16:58:42.411Z,23.43
2024-04-12T17:01:11.947Z,23.18
2024-04-12T17:03:41.825Z,22.54
2024-04-12T17:06:09.082Z,22.72
2024-04-12T17:08:38.484Z,21.09
2024-04-12T17:11:07.779Z,22.45
2024-04-12T17:13:37.538Z,21.72
2024-04-12T17:16:05.365Z,21.38
2024-04-12T17:18:39.426Z,21.98
2024-04-12T17:21:06.626Z,22.37
2024-04-12T17:23:36.057Z,22.46
2024-04-12T17:26:05.541Z,22.26
2024-04-12T17:28:39.331Z,22.57
2024-04-12T17:31:07.956Z,22.61
2024-04-12T17:33:43.631Z,22.48
2024-04-12T17:36:12.248Z,22.72
2024-04-12T17:38:42.101Z,22.83
2024-04-12T17:41:08.902Z,22.37
2024-04-12T17:43:38.425Z,22.19
2024-04-12T17:46:05.637Z,22.11
2024-04-12T17:48:35.571Z,21.83
2024-04-12T17:51:05.391Z,21.23
2024-04-12T17:53:35.582Z,21.25
2024-04-12T17:56:02.302Z,21.83
2024-04-12T17:58:32.767Z,21.59
2024-04-12T18:01:05.956Z,21.67
2024-04-12T18:03:36.531Z,21.27
2024-04-12T18:06:08.495Z,21.53
2024-04-12T18:08:39.854Z,21.71
2024-04-12T18:11:10.434Z,21.06
2024-04-12T18:13:41.668Z,21.03
2024-04-12T18:16:08.882Z,21.61
2024-04-12T18:18:41.108Z,21.30
2024-04-12T18:21:13.129Z,21.56
2024-04-12T18:23:44.891Z,21.63
2024-04-12T18:26:15.639Z,22.13
2024-04-12T18:28:51.392Z,21.51
2024-04-12T18:31:19.318Z,21.66
2024-04-12T18:33:49.665Z,21.99
2024-04-12T18:36:22.899Z,21.07
2024-04-12T18:39:10.149Z,21.90
2024-04-12T18:41:57.423Z,20.67
2024-04-12T18:44:46.116Z,21.25
2024-04-12T18:47:16.061Z,21.14
2024-04-12T18:49:46.257Z,20.35
2024-04-12T18:52:18.772Z,21.39
2024-04-12T18:54:46.131Z,20.37
2024-04-12T18:57:17.071Z,20.90
2024-04-12T18:59:47.553Z,20.00
2024-04-12T19:02:15.662Z,20.54
2024-04-12T19:04:45.726Z,21.00
2024-04-12T19:07:15.364Z,20.78
2024-04-12T19:09:44.804Z,20.82
2024-04-12T19:12:11.672Z,21.32
2024-04-12T19:14:45.559Z,21.84
2024-04-12T19:17:12.788Z,20.68
2024-04-12T19:19:42.308Z,21.66
2024-04-12T19:22:09.161Z,21.01
2024-04-12T19:24:41.312Z,20.80
2024-04-12T19:27:08.114Z,21.17
2024-04-12T19:29:38.264Z,21.65
2024-04-12T19:32:06.467Z,20.00
2024-04-12T19:34:37.113Z,20.80
2024-04-12T19:37:05.732Z,20.43
2024-04-12T19:39:35.410Z,21.24
2024-04-12T19:42:05.589Z,21.28
2024-04-12T19:44:38.043Z,21.14
2024-04-12T19:47:06.420Z,20.54
2024-04-12T19:49:36.390Z,20.50
2024-04-12T19:52:04.144Z,20.43
2024-04-12T19:54:33.601Z,20.44
2024-04-12T19:57:00.498Z,20.50
2024-04-12T19:59:33.904Z,20.94
2024-04-12T20:02:00.641Z,21.59
2024-04-12T20:04:29.930Z,21.19
2024-04-12T20:06:56.652Z,20.05
2024-04-12T20:09:26.094Z,20.17
2024-04-12T20:11:53.022Z,20.57
2024-04-12T20:14:25.070Z,20.29
2024-04-12T20:16:55.387Z,19.77
2024-04-12T20:19:25.429Z,20.53
2024-04-12T20:21:54.271Z,20.88
2024-04-12T20:24:29.472Z,20.82
2024-04-12T20:26:58.086Z,20.37
2024-04-12T20:29:28.303Z,21.29
2024-04-12T20:32:23.814Z,21.48
2024-04-12T20:35:20.285Z,20.93
2024-04-12T20:37:47.211Z,21.50
2024-04-12T20:40:16.640Z,20.40
2024-04-12T20:42:45.829Z,20.29
2024-04-12T20:45:17.564Z,21.18
2024-04-12T20:47:48.293Z,20.80
2024-04-12T20:50:19.226Z,20.80
2024-04-12T20:52:50.007Z,21.11
2024-04-12T20:55:20.874Z,20.32
2024-04-12T20:57:47.732Z,19.86
2024-04-12T21:00:21.827Z,20.09
2024-04-12T21:03:02.561Z,20.83
2024-04-12T21:05:33.432Z,20.88
2024-04-12T21:08:00.990Z,20.88
2024-04-12T21:10:31.353Z,20.26
2024-04-12T21:12:58.105Z,21.30
2024-04-12T21:15:29.758Z,21.69
2024-04-12T21:18:00.108Z,21.58
2024-04-12T21:20:29.815Z,21.42
2024-04-12T21:22:57.789Z,21.11
2024-04-12T21:25:27.401Z,21.05
2024-04-12T21:27:54.151Z,21.99
2024-04-12T21:30:24.981Z,22.08
2024-04-12T21:32:55.724Z,22.04
2024-04-12T21:35:28.580Z,20.64
2024-04-12T21:37:55.295Z,21.48
2024-04-12T21:40:25.869Z,22.41
2024-04-12T21:42:52.808Z,22.21
2024-04-12T21:45:24.423Z,21.99
2024-04-12T21:47:52.684Z,21.16
2024-04-12T21:50:22.813Z,22.50
2024-04-12T21:52:57.066Z,21.82
2024-04-12T21:55:31.367Z,21.96
2024-04-12T21:57:58.114Z,22.23
2024-04-12T22:00:32.538Z,21.66
2024-04-12T22:03:00.324Z,22.04
2024-04-12T22:05:29.873Z,21.78
2024-04-12T22:07:59.183Z,22.08
2024-04-12T22:10:28.602Z,21.31
2024-04-12T22:12:56.061Z,20.71
2024-04-12T22:15:26.298Z,21.66
2024-04-12T22:17:54.464Z,21.75
2024-04-12T22:20:24.031Z,21.85
2024-04-12T22:22:51.529Z,21.66
2024-04-12T22:25:24.031Z,19.68
2024-04-12T22:27:50.741Z,21.14
2024-04-12T22:30:20.376Z,20.60
2024-04-12T22:32:48.680Z,21.09
2024-04-12T22:35:20.869Z,21.19
2024-04-12T22:37:47.624Z,21.73
2024-04-12T22:40:17.058Z,21.26
2024-04-12T22:42:46.805Z,20.69
2024-04-12T22:45:16.964Z,19.90
2024-04-12T22:47:43.785Z,20.54
2024-04-12T22:50:13.203Z,21.34
2024-04-12T22:52:43.568Z,20.67
2024-04-12T22:55:14.060Z,20.25
2024-04-12T22:57:43.508Z,20.58
2024-04-12T23:00:15.849Z,20.84
2024-04-12T23:02:43.145Z,20.55
2024-04-12T23:05:15.901Z,20.11
2024-04-12T23:07:42.875Z,20.45
2024-04-12T23:10:12.206Z,20.07
2024-04-12T23:12:39.050Z,21.20
2024-04-12T23:15:08.922Z,18.95
2024-04-12T23:17:39.643Z,20.28
2024-04-12T23:20:10.976Z,20.88
2024-04-12T23:22:38.373Z,20.19
2024-04-12T23:25:08.234Z,20.43
2024-04-12T23:27:35.086Z,20.62
2024-04-12T23:30:04.515Z,18.99
2024-04-12T23:32:31.187Z,21.21
2024-04-12T23:35:05.652Z,20.85
2024-04-12T23:37:34.339Z,21.83
2024-04-12T23:40:04.945Z,20.56
2024-04-12T23:42:34.029Z,20.80
2024-04-12T23:45:03.730Z,20.20
2024-04-12T23:47:30.740Z,19.75
2024-04-12T23:50:03.959Z,20.03
2024-04-12T23:52:30.767Z,21.05
2024-04-12T23:55:06.605Z,20.82
2024-04-12T23:57:34.144Z,20.52
